LICA/SUF METAR and TAF weather

Enter ICAO airport designator
Station Type Date Time Source
LICA METAR 2020/01/23 17:50 UTC NOAA

LICA 231750Z 06004KT 9999 FEW030 08/07 Q1028


Station Type Date Time Source
LICA Decoded METAR 2020/01/23 17:50 UTC NOAA

Lamezia Terme, Italy (LICA) 38-54N 016-15E
Jan 23, 2020 - 12:50 PM EST / 2020.01.23 1750 UTC
Wind: from the ENE (060 degrees) at 5 MPH (4 KT):0
Visibility: greater than 7 mile(s):0
Sky conditions: mostly clear
Temperature: 46 F (8 C)
Dew Point: 44 F (7 C)
Relative Humidity: 93%
Pressure (altimeter): 30.36 in. Hg (1028 hPa)
ob: LICA 231750Z 06004KT 9999 FEW030 08/07 Q1028
cycle: 18

Station Type Date Time Source
LICA TAF 2020/01/23 18:21 UTC NOAA

TAF LICA 231700Z 2318/2418 26010KT 9999 SCT020
BECMG 2319/2321 07008KT

Example: see airport list